createdAt,value
2022-11-08T00:01:36.220Z,1.63
2022-11-08T00:04:06.805Z,1.50
2022-11-08T00:06:53.065Z,1.47
2022-11-08T00:09:38.480Z,1.53
2022-11-08T00:12:26.682Z,1.20
2022-11-08T00:14:54.871Z,1.40
2022-11-08T00:17:24.400Z,1.40
2022-11-08T00:19:52.800Z,1.50
2022-11-08T00:22:21.364Z,1.50
2022-11-08T00:24:50.196Z,1.00
2022-11-08T00:27:21.899Z,1.30
2022-11-08T00:29:49.905Z,1.63
2022-11-08T00:32:19.905Z,1.40
2022-11-08T00:34:48.698Z,1.33
2022-11-08T00:37:17.169Z,1.40
2022-11-08T00:39:45.230Z,1.60
2022-11-08T00:42:13.194Z,1.63
2022-11-08T00:44:42.594Z,1.60
2022-11-08T00:47:10.873Z,1.33
2022-11-08T00:49:38.816Z,1.67
2022-11-08T00:52:06.951Z,1.67
2022-11-08T00:54:34.886Z,1.47
2022-11-08T00:57:02.892Z,1.77
2022-11-08T00:59:30.833Z,1.90
2022-11-08T01:02:00.246Z,1.40
2022-11-08T01:04:28.354Z,1.60
2022-11-08T01:06:56.281Z,1.53
2022-11-08T01:09:24.223Z,1.43
2022-11-08T01:11:52.140Z,1.23
2022-11-08T01:14:20.095Z,1.30
2022-11-08T01:16:48.037Z,1.23
2022-11-08T01:19:17.317Z,1.50
2022-11-08T01:21:45.245Z,1.60
2022-11-08T01:24:13.143Z,1.73
2022-11-08T01:26:41.148Z,2.20
2022-11-08T01:29:09.083Z,1.60
2022-11-08T01:31:37.069Z,1.43
2022-11-08T01:34:05.469Z,1.67
2022-11-08T01:36:34.836Z,1.50
2022-11-08T01:39:02.840Z,2.00
2022-11-08T01:41:30.793Z,1.50
2022-11-08T01:44:00.807Z,1.27
2022-11-08T01:46:34.702Z,1.63
2022-11-08T01:49:16.339Z,1.50
2022-11-08T01:51:49.467Z,1.60
2022-11-08T01:54:21.976Z,1.77
2022-11-08T01:56:50.581Z,1.43
2022-11-08T01:59:19.408Z,1.77
2022-11-08T02:01:48.721Z,1.60
2022-11-08T02:57:26.384Z,1.43
2022-11-08T02:59:54.375Z,1.40
2022-11-08T03:02:22.568Z,1.27
2022-11-08T03:04:50.614Z,1.20
2022-11-08T03:07:23.686Z,1.40
2022-11-08T03:09:52.709Z,1.50
2022-11-08T03:12:20.809Z,1.20
2022-11-08T03:14:50.195Z,1.50
2022-11-08T03:17:18.190Z,1.53
2022-11-08T03:19:46.127Z,1.57
2022-11-08T03:22:14.106Z,1.40
2022-11-08T03:24:42.267Z,1.00
2022-11-08T03:27:10.284Z,1.10
2022-11-08T03:29:38.217Z,1.30
2022-11-08T03:32:07.727Z,1.70
2022-11-08T03:34:35.687Z,1.33
2022-11-08T03:37:05.417Z,1.40
2022-11-08T03:39:33.466Z,1.43
2022-11-08T03:42:03.170Z,1.23
2022-11-08T03:44:31.555Z,1.40
2022-11-08T03:46:59.612Z,1.30
2022-11-08T03:49:29.147Z,1.90
2022-11-08T03:51:57.150Z,1.37
2022-11-08T03:54:25.225Z,1.47
2022-11-08T03:56:53.349Z,1.30
2022-11-08T03:59:21.360Z,1.73
2022-11-08T04:01:49.471Z,1.30
2022-11-08T04:04:17.608Z,1.17
2022-11-08T04:06:46.945Z,1.00
2022-11-08T04:09:20.404Z,1.10
2022-11-08T04:12:06.622Z,1.20
2022-11-08T04:14:52.239Z,1.30
2022-11-08T04:17:40.182Z,1.40
2022-11-08T04:20:27.496Z,1.20
2022-11-08T04:22:56.854Z,1.40
2022-11-08T04:25:24.843Z,1.30
2022-11-08T04:27:52.795Z,1.10
2022-11-08T04:30:20.773Z,1.50
2022-11-08T04:32:48.728Z,1.27
2022-11-08T04:35:16.878Z,1.50
2022-11-08T04:37:44.864Z,1.10
2022-11-08T04:40:14.958Z,1.37
2022-11-08T04:42:45.147Z,1.20
2022-11-08T04:45:13.142Z,1.43
2022-11-08T04:47:45.695Z,1.40
2022-11-08T04:50:16.749Z,1.30
2022-11-08T04:52:44.722Z,1.70
2022-11-08T04:55:14.027Z,1.40
2022-11-08T04:57:41.974Z,1.40
2022-11-08T05:00:11.277Z,1.30
2022-11-08T05:02:39.301Z,1.30
2022-11-08T05:05:08.571Z,1.47
2022-11-08T05:07:36.602Z,1.23
2022-11-08T05:10:05.163Z,1.40
2022-11-08T05:12:34.504Z,1.33
2022-11-08T05:15:02.517Z,1.47
2022-11-08T05:17:30.549Z,1.20
2022-11-08T05:20:16.133Z,1.67
2022-11-08T05:23:01.654Z,1.20
2022-11-08T05:25:29.630Z,2.30
2022-11-08T05:27:58.985Z,1.73
2022-11-08T05:30:26.949Z,1.60
2022-11-08T05:32:54.933Z,1.50
2022-11-08T05:35:23.016Z,1.30
2022-11-08T05:37:51.043Z,1.77
2022-11-08T05:40:19.055Z,1.50
2022-11-08T05:42:47.057Z,1.70
2022-11-08T05:45:16.527Z,1.10
2022-11-08T05:47:48.166Z,1.10
2022-11-08T05:50:19.359Z,1.40
2022-11-08T05:52:47.793Z,1.70
2022-11-08T05:55:15.975Z,1.17
2022-11-08T05:57:44.595Z,1.30
2022-11-08T06:00:13.606Z,1.80
2022-11-08T06:02:43.035Z,2.10
2022-11-08T06:05:11.963Z,2.20
2022-11-08T06:07:39.987Z,1.90
2022-11-08T06:10:09.118Z,2.53
2022-11-08T06:12:38.188Z,2.37
2022-11-08T06:15:07.600Z,2.37
2022-11-08T06:17:35.806Z,2.63
2022-11-08T06:20:07.416Z,2.80
2022-11-08T06:22:36.458Z,2.60
2022-11-08T06:25:04.782Z,2.87
2022-11-08T06:27:32.779Z,2.70
2022-11-08T06:30:00.770Z,3.27
2022-11-08T06:32:28.705Z,2.77
2022-11-08T06:34:56.687Z,2.50
2022-11-08T06:37:26.130Z,2.63
2022-11-08T06:39:54.073Z,2.60
2022-11-08T06:42:22.062Z,1.87
2022-11-08T06:44:50.035Z,2.07
2022-11-08T06:47:18.031Z,2.10
2022-11-08T06:49:46.519Z,1.87
2022-11-08T06:52:14.464Z,1.80
2022-11-08T06:54:43.828Z,1.70
2022-11-08T06:57:11.816Z,2.33
2022-11-08T06:59:40.102Z,2.10
2022-11-08T07:02:09.090Z,1.90
2022-11-08T07:04:37.295Z,1.73
2022-11-08T07:07:05.271Z,1.63
2022-11-08T07:09:33.395Z,1.90
2022-11-08T07:12:02.778Z,1.37
2022-11-08T07:14:31.086Z,1.73
2022-11-08T07:16:59.114Z,1.20
2022-11-08T07:19:27.106Z,1.63
2022-11-08T07:21:55.080Z,1.50
2022-11-08T07:24:23.063Z,1.50
2022-11-08T07:26:51.056Z,1.50
2022-11-08T07:29:20.666Z,2.03
2022-11-08T07:31:48.641Z,1.43
2022-11-08T07:34:17.564Z,1.70
2022-11-08T07:36:48.107Z,1.43
2022-11-08T07:39:16.132Z,1.67
2022-11-08T07:41:44.274Z,1.97
2022-11-08T07:44:12.271Z,1.47
2022-11-08T07:46:41.616Z,1.20
2022-11-08T07:49:09.590Z,1.57
2022-11-08T07:51:37.576Z,1.53
2022-11-08T07:54:05.680Z,1.40
2022-11-08T07:56:33.726Z,1.60
2022-11-08T07:59:01.734Z,1.63
2022-11-08T08:01:29.747Z,2.00
2022-11-08T08:03:59.242Z,1.40
2022-11-08T08:06:27.326Z,1.70
2022-11-08T08:08:55.359Z,1.40
2022-11-08T08:11:23.305Z,1.40
2022-11-08T08:13:51.303Z,1.40
2022-11-08T08:16:19.289Z,1.40
2022-11-08T08:18:48.628Z,1.50
2022-11-08T08:21:19.593Z,1.60
2022-11-08T08:23:47.603Z,1.97
2022-11-08T08:26:15.582Z,1.83
2022-11-08T08:28:43.553Z,1.33
2022-11-08T08:31:11.584Z,1.70
2022-11-08T08:33:40.064Z,1.60
2022-11-08T08:36:08.735Z,1.83
2022-11-08T08:38:44.162Z,1.30
2022-11-08T08:41:12.670Z,1.57
2022-11-08T08:43:40.623Z,2.17
2022-11-08T08:46:08.631Z,1.37
2022-11-08T08:48:38.590Z,1.30
2022-11-08T08:51:06.872Z,1.43
2022-11-08T08:53:34.836Z,1.60
2022-11-08T08:56:05.603Z,1.40
2022-11-08T08:58:33.634Z,1.30
2022-11-08T09:03:50.804Z,1.60
2022-11-08T09:06:19.146Z,1.50
2022-11-08T09:08:47.144Z,1.40
2022-11-08T09:11:16.531Z,1.40
2022-11-08T09:13:44.522Z,1.33
2022-11-08T09:16:13.741Z,1.40
2022-11-08T09:18:41.775Z,1.50
2022-11-08T09:21:10.126Z,1.43
2022-11-08T09:23:38.071Z,1.50
2022-11-08T09:26:07.022Z,1.20
2022-11-08T09:28:38.004Z,1.43
2022-11-08T09:31:09.151Z,1.20
2022-11-08T09:33:37.866Z,1.17
2022-11-08T09:36:07.217Z,1.30
2022-11-08T09:38:35.526Z,1.30
2022-11-08T09:41:37.227Z,1.40
2022-11-08T09:44:21.748Z,1.20
2022-11-08T09:46:53.967Z,1.50
2022-11-08T09:49:26.150Z,0.90
2022-11-08T09:51:54.590Z,0.90
2022-11-08T09:54:26.067Z,1.30
2022-11-08T09:56:56.091Z,1.23
2022-11-08T09:59:35.806Z,1.30
2022-11-08T10:02:04.213Z,1.20
2022-11-08T10:04:34.033Z,1.40
2022-11-08T10:07:18.323Z,1.20
2022-11-08T10:10:07.014Z,1.30
2022-11-08T10:12:43.752Z,1.37
2022-11-08T10:15:25.930Z,1.40
2022-11-08T10:18:13.460Z,1.33
2022-11-08T10:20:52.973Z,1.00
2022-11-08T10:23:23.171Z,1.23
2022-11-08T10:25:56.959Z,1.50
2022-11-08T10:28:32.608Z,1.10
2022-11-08T10:31:02.856Z,0.90
2022-11-08T10:33:34.304Z,0.90
2022-11-08T10:36:07.441Z,1.10
2022-11-08T10:38:43.556Z,1.10
2022-11-08T10:41:18.564Z,1.17
2022-11-08T10:43:50.902Z,1.27
2022-11-08T10:46:35.901Z,1.00
2022-11-08T10:49:17.327Z,1.40
2022-11-08T10:51:46.251Z,1.40
2022-11-08T10:54:50.039Z,1.20
2022-11-08T10:57:24.005Z,1.30
2022-11-08T10:59:52.829Z,0.90
2022-11-08T11:02:28.670Z,1.40
2022-11-08T11:05:22.777Z,1.30
2022-11-08T11:08:13.977Z,2.50
2022-11-08T11:10:43.027Z,1.20
2022-11-08T11:13:13.426Z,0.93
2022-11-08T11:15:47.507Z,2.50
2022-11-08T11:18:25.733Z,2.77
2022-11-08T11:21:07.083Z,3.07
2022-11-08T11:23:41.227Z,1.60
2022-11-08T11:26:17.844Z,1.50
2022-11-08T11:29:16.494Z,1.70
2022-11-08T11:31:45.973Z,1.43
2022-11-08T11:34:49.559Z,1.30
2022-11-08T11:37:23.615Z,1.20
2022-11-08T11:40:04.334Z,0.90
2022-11-08T11:42:45.683Z,0.83
2022-11-08T11:45:19.696Z,1.40
2022-11-08T11:47:53.121Z,1.40
2022-11-08T11:50:29.760Z,1.30
2022-11-08T11:52:58.282Z,1.10
2022-11-08T11:55:35.716Z,1.20
2022-11-08T11:58:14.325Z,1.07
2022-11-08T12:00:48.817Z,1.30
2022-11-08T12:03:46.676Z,1.40
2022-11-08T12:06:29.436Z,1.40
2022-11-08T12:09:14.163Z,0.90
2022-11-08T12:11:52.870Z,1.20
2022-11-08T12:14:35.539Z,1.10
2022-11-08T12:17:20.203Z,1.10
2022-11-08T12:20:03.880Z,0.97
2022-11-08T12:22:49.223Z,1.30
2022-11-08T12:25:24.926Z,1.00
2022-11-08T12:27:56.085Z,0.90
2022-11-08T12:30:34.052Z,1.20
2022-11-08T12:33:20.834Z,2.80
2022-11-08T12:36:04.270Z,1.60
2022-11-08T12:38:39.267Z,1.20
2022-11-08T12:41:17.484Z,0.90
2022-11-08T12:44:06.920Z,5.03
2022-11-08T12:46:45.973Z,2.17
2022-11-08T12:49:27.257Z,2.07
2022-11-08T12:52:06.591Z,1.40
2022-11-08T12:54:39.863Z,1.40
2022-11-08T12:57:12.598Z,1.23
2022-11-08T12:59:43.914Z,1.60
2022-11-08T13:02:19.477Z,1.60
2022-11-08T13:04:56.102Z,1.60
2022-11-08T13:07:37.578Z,1.20
2022-11-08T13:10:13.931Z,1.70
2022-11-08T13:12:48.700Z,1.15
2022-11-08T13:15:19.750Z,1.60
2022-11-08T13:18:32.713Z,1.37
2022-11-08T13:21:00.734Z,1.60
2022-11-08T13:23:31.254Z,2.07
2022-11-08T13:26:21.863Z,1.53
2022-11-08T13:28:51.006Z,1.53
2022-11-08T13:31:31.262Z,2.00
2022-11-08T13:34:23.737Z,1.30
2022-11-08T13:37:10.405Z,1.80
2022-11-08T13:40:13.911Z,1.23
2022-11-08T13:43:14.681Z,1.63
2022-11-08T13:45:43.524Z,1.20
2022-11-08T13:48:34.117Z,1.80
2022-11-08T13:51:23.974Z,2.00
2022-11-08T13:53:54.461Z,1.87
2022-11-08T13:56:45.148Z,1.80
2022-11-08T13:59:52.110Z,1.63
2022-11-08T14:02:38.686Z,3.00
2022-11-08T14:05:30.470Z,2.90
2022-11-08T14:08:20.972Z,2.80
2022-11-08T14:11:29.760Z,2.50
2022-11-08T14:14:33.978Z,1.80
2022-11-08T14:17:13.543Z,1.77
2022-11-08T14:19:44.857Z,1.50
2022-11-08T14:22:18.188Z,1.80
2022-11-08T14:24:47.032Z,1.73
2022-11-08T14:27:16.284Z,1.77
2022-11-08T14:29:44.376Z,2.00
2022-11-08T14:32:20.251Z,1.63
2022-11-08T14:34:49.597Z,1.70
2022-11-08T14:37:24.405Z,1.63
2022-11-08T14:39:53.267Z,1.67
2022-11-08T14:42:24.287Z,1.50
2022-11-08T14:44:54.998Z,1.60
2022-11-08T14:47:28.796Z,1.60
2022-11-08T14:49:58.424Z,3.40
2022-11-08T14:52:29.748Z,2.93
2022-11-08T14:55:06.410Z,2.07
2022-11-08T14:57:37.174Z,1.80
2022-11-08T15:00:14.723Z,1.80
2022-11-08T15:02:45.248Z,1.97
2022-11-08T15:05:33.719Z,1.90
2022-11-08T15:08:04.529Z,1.70
2022-11-08T15:10:32.630Z,1.60
2022-11-08T15:13:00.771Z,1.50
2022-11-08T15:15:32.033Z,1.90
2022-11-08T15:18:26.131Z,1.40
2022-11-08T15:20:57.354Z,1.37
2022-11-08T15:23:28.583Z,3.07
2022-11-08T15:25:58.925Z,1.73
2022-11-08T15:28:33.049Z,1.77
2022-11-08T15:31:03.743Z,1.80
2022-11-08T15:33:36.376Z,1.83
2022-11-08T15:36:13.129Z,1.77
2022-11-08T15:38:42.762Z,1.60
2022-11-08T15:41:31.458Z,1.73
2022-11-08T15:44:18.258Z,1.67
2022-11-08T15:46:46.540Z,1.67
2022-11-08T15:49:17.831Z,1.57
2022-11-08T15:51:47.386Z,1.40
2022-11-08T15:54:15.515Z,1.90
2022-11-08T15:56:43.747Z,1.50
2022-11-08T15:59:18.696Z,1.50
2022-11-08T16:01:55.547Z,1.57
2022-11-08T16:04:23.994Z,1.77
2022-11-08T16:06:53.504Z,1.60
2022-11-08T16:09:21.551Z,1.80
2022-11-08T16:11:50.395Z,1.50
2022-11-08T16:14:20.615Z,2.47
2022-11-08T16:16:48.805Z,1.83
2022-11-08T16:19:21.934Z,2.17
2022-11-08T16:21:50.174Z,2.80
2022-11-08T16:24:19.785Z,4.33
2022-11-08T16:26:48.778Z,2.67
2022-11-08T16:29:21.743Z,3.80
2022-11-08T16:31:50.129Z,2.20
2022-11-08T16:34:18.291Z,2.20
2022-11-08T16:36:47.840Z,2.20
2022-11-08T16:39:17.993Z,2.20
2022-11-08T16:41:47.330Z,2.20
2022-11-08T16:44:15.449Z,2.33
2022-11-08T16:46:43.613Z,2.20
2022-11-08T16:49:21.009Z,2.53
2022-11-08T16:51:49.690Z,2.53
2022-11-08T16:54:20.245Z,2.37
2022-11-08T16:56:49.579Z,2.40
2022-11-08T16:59:17.533Z,2.40
2022-11-08T17:01:45.665Z,2.17
2022-11-08T17:04:13.671Z,2.90
2022-11-08T17:06:41.698Z,2.40
2022-11-08T17:09:09.675Z,2.37
2022-11-08T17:11:39.687Z,2.63
2022-11-08T17:14:11.239Z,2.90
2022-11-08T17:16:39.214Z,2.83
2022-11-08T17:19:07.190Z,2.30
2022-11-08T17:21:50.334Z,2.40
2022-11-08T17:24:21.932Z,2.60
2022-11-08T17:26:51.178Z,2.90
2022-11-08T17:29:20.554Z,2.90
2022-11-08T17:31:48.831Z,10.77
2022-11-08T17:34:17.173Z,4.73
2022-11-08T17:36:45.223Z,6.20
2022-11-08T17:39:14.346Z,5.43
2022-11-08T17:41:42.584Z,3.37
2022-11-08T17:44:10.666Z,3.80
2022-11-08T17:46:40.107Z,4.33
2022-11-08T17:49:09.421Z,2.60
2022-11-08T17:51:37.494Z,2.87
2022-11-08T17:54:05.545Z,3.03
2022-11-08T17:56:33.560Z,2.93
2022-11-08T17:59:01.580Z,2.60
2022-11-08T18:01:29.939Z,2.43
2022-11-08T18:03:59.358Z,3.40
2022-11-08T18:06:27.403Z,2.60
2022-11-08T18:08:56.784Z,2.60
2022-11-08T18:11:25.209Z,2.10
2022-11-08T18:13:53.281Z,2.90
2022-11-08T18:16:22.738Z,2.30
2022-11-08T18:18:51.530Z,2.60
2022-11-08T18:21:21.085Z,2.70
2022-11-08T18:23:49.947Z,3.00
2022-11-08T18:26:19.104Z,2.53
2022-11-08T18:28:47.229Z,3.50
2022-11-08T18:31:17.299Z,2.90
2022-11-08T18:33:46.285Z,2.70
2022-11-08T18:36:16.411Z,2.87
2022-11-08T18:38:46.151Z,2.63
2022-11-08T18:41:15.599Z,2.50
2022-11-08T18:43:43.634Z,2.43
2022-11-08T18:46:14.232Z,2.70
2022-11-08T18:48:42.828Z,3.07
2022-11-08T18:51:12.735Z,2.60
2022-11-08T18:53:41.556Z,3.00
2022-11-08T18:56:11.678Z,2.93
2022-11-08T18:58:40.351Z,2.80
2022-11-08T19:01:08.604Z,3.03
2022-11-08T19:03:36.624Z,2.97
2022-11-08T19:06:04.743Z,2.90
2022-11-08T19:08:34.246Z,2.90
2022-11-08T19:11:04.026Z,3.03
2022-11-08T19:13:36.086Z,3.17
2022-11-08T19:16:06.351Z,3.47
2022-11-08T19:18:35.861Z,2.93
2022-11-08T19:21:06.334Z,2.83
2022-11-08T19:23:36.363Z,2.63
2022-11-08T19:26:06.269Z,2.67
2022-11-08T19:28:37.688Z,3.30
2022-11-08T19:31:06.656Z,3.00
2022-11-08T19:33:35.384Z,3.07
2022-11-08T19:36:05.327Z,3.13
2022-11-08T19:38:34.015Z,2.70
2022-11-08T19:41:03.330Z,2.63
2022-11-08T19:43:31.741Z,2.93
2022-11-08T19:46:04.581Z,2.77
2022-11-08T19:48:35.184Z,3.13
2022-11-08T19:51:03.310Z,3.50
2022-11-08T19:53:31.989Z,2.70
2022-11-08T19:56:01.194Z,2.87
2022-11-08T19:58:29.560Z,2.97
2022-11-08T20:00:57.563Z,3.27
2022-11-08T20:03:26.917Z,3.13
2022-11-08T20:05:55.435Z,4.07
2022-11-08T20:08:23.433Z,2.87
2022-11-08T20:10:51.570Z,2.90
2022-11-08T20:13:19.752Z,2.77
2022-11-08T20:15:47.921Z,3.13
2022-11-08T20:18:16.383Z,3.13
2022-11-08T20:20:46.619Z,3.17
2022-11-08T20:23:17.466Z,3.40
2022-11-08T20:25:45.476Z,3.33
2022-11-08T20:28:13.487Z,3.07
2022-11-08T20:30:41.510Z,2.67
2022-11-08T20:33:09.528Z,3.13
2022-11-08T20:35:38.631Z,3.77
2022-11-08T20:38:08.018Z,3.27
2022-11-08T20:40:38.433Z,3.53
2022-11-08T20:43:06.406Z,3.73
2022-11-08T20:45:34.366Z,3.70
2022-11-08T20:48:02.826Z,3.40
2022-11-08T20:50:31.009Z,3.03
2022-11-08T20:52:58.997Z,3.30
2022-11-08T20:55:29.447Z,3.50
2022-11-08T20:57:57.647Z,3.13
2022-11-08T21:00:52.034Z,3.57
2022-11-08T21:03:18.697Z,3.47
2022-11-08T21:05:51.693Z,3.63
2022-11-08T21:11:10.940Z,4.13
2022-11-08T21:13:41.440Z,3.90
2022-11-08T21:16:28.790Z,3.30
2022-11-08T21:18:58.441Z,3.77
2022-11-08T21:21:27.295Z,3.37
2022-11-08T21:23:55.342Z,3.23
2022-11-08T21:26:24.694Z,3.20
2022-11-08T21:28:53.502Z,2.80
2022-11-08T21:31:21.462Z,3.10
2022-11-08T21:33:49.487Z,2.90
2022-11-08T21:36:18.400Z,3.20
2022-11-08T21:38:46.462Z,3.07
2022-11-08T21:41:14.500Z,3.27
2022-11-08T21:43:45.241Z,2.73
2022-11-08T21:46:21.310Z,3.07
2022-11-08T21:48:53.918Z,3.27
2022-11-08T21:51:21.932Z,3.10
2022-11-08T21:53:54.927Z,2.40
2022-11-08T21:56:24.500Z,2.80
2022-11-08T21:58:54.139Z,3.03
2022-11-08T22:01:28.597Z,2.77
2022-11-08T22:03:58.311Z,3.23
2022-11-08T22:06:26.607Z,2.60
2022-11-08T22:08:54.803Z,3.20
2022-11-08T22:11:22.928Z,4.23
2022-11-08T22:13:50.900Z,3.13
2022-11-08T22:16:20.283Z,2.70
2022-11-08T22:19:05.118Z,2.87
2022-11-08T22:21:40.441Z,3.17
2022-11-08T22:24:10.579Z,3.17
2022-11-08T22:26:38.670Z,3.00
2022-11-08T22:29:06.967Z,3.07
2022-11-08T22:31:36.683Z,2.80
2022-11-08T22:34:05.315Z,2.63
2022-11-08T22:36:33.479Z,4.37
2022-11-08T22:39:01.940Z,3.47
2022-11-08T22:41:30.428Z,2.97
2022-11-08T22:43:58.771Z,2.37
2022-11-08T22:46:26.782Z,2.60
2022-11-08T22:48:56.321Z,3.37
2022-11-08T22:51:24.280Z,2.37
2022-11-08T22:53:52.260Z,2.73
2022-11-08T22:56:20.318Z,2.70
2022-11-08T22:58:48.426Z,2.73
2022-11-08T23:01:17.454Z,3.00
2022-11-08T23:03:46.698Z,2.80
2022-11-08T23:06:16.715Z,2.43
2022-11-08T23:08:45.029Z,2.90
2022-11-08T23:11:30.515Z,2.30
2022-11-08T23:14:15.881Z,2.80
2022-11-08T23:16:46.187Z,2.60
2022-11-08T23:19:34.555Z,2.90
2022-11-08T23:22:23.004Z,2.47
2022-11-08T23:24:50.960Z,2.40
2022-11-08T23:27:38.260Z,2.40
2022-11-08T23:30:25.583Z,2.40
2022-11-08T23:32:54.005Z,2.80
2022-11-08T23:35:22.401Z,2.90
2022-11-08T23:37:51.856Z,2.37
2022-11-08T23:40:38.725Z,2.30
2022-11-08T23:43:27.148Z,2.77
2022-11-08T23:45:55.124Z,2.50
2022-11-08T23:48:23.191Z,2.80
2022-11-08T23:50:52.572Z,2.47
2022-11-08T23:53:25.178Z,2.20
2022-11-08T23:55:53.386Z,2.50
2022-11-08T23:58:22.157Z,2.40
